Time;durP1;ratioP1;P1;durP2;ratioP2;P2;SDS_P1;SDS_P2;PMS_P1;PMS_P2;Temp;Humidity;BMP_temperature;BMP_pressure;BME280_temperature;BME280_humidity;BME280_pressure;Samples;Min_cycle;Max_cycle;Signal;HPM_P1;HPM_P2
2021/04/25 00:00:17;;;;;;;8.50;4.37;;;;;;;1.29;100.00;100582.74;1708088;84;21114;-76
2021/04/25 00:02:45;;;;;;;8.83;4.23;;;;;;;1.27;100.00;100581.11;1707907;84;21141;-77
2021/04/25 00:05:15;;;;;;;7.33;4.20;;;;;;;1.27;100.00;100577.96;1708360;83;21584;-77
2021/04/25 00:07:44;;;;;;;7.90;4.23;;;;;;;1.27;100.00;100587.77;1708233;84;21145;-77
2021/04/25 00:10:12;;;;;;;7.83;4.43;;;;;;;1.26;100.00;100590.08;1708074;83;21311;-76
2021/04/25 00:12:42;;;;;;;6.83;3.70;;;;;;;1.22;100.00;100585.87;1708189;84;21146;-77
2021/04/25 00:15:21;;;;;;;7.30;3.87;;;;;;;1.19;100.00;100583.40;1708406;84;21162;-77
2021/04/25 00:17:48;;;;;;;7.00;3.80;;;;;;;1.17;100.00;100581.31;1681541;84;21603;-77
2021/04/25 00:20:17;;;;;;;6.53;3.97;;;;;;;1.16;100.00;100590.28;1681331;85;21192;-77
2021/04/25 00:22:45;;;;;;;7.60;4.70;;;;;;;1.12;100.00;100590.47;1681369;85;21176;-77
2021/04/25 00:25:13;;;;;;;9.20;4.30;;;;;;;1.08;100.00;100594.73;1681221;85;21156;-77
2021/04/25 00:27:42;;;;;;;7.43;4.00;;;;;;;1.05;100.00;100596.28;1681480;85;21559;-77
2021/04/25 00:30:14;;;;;;;5.40;3.97;;;;;;;0.97;100.00;100587.42;1681493;85;21615;-76
2021/04/25 00:32:48;;;;;;;6.70;3.70;;;;;;;0.97;100.00;100586.09;1814731;77;22374;-77
2021/04/25 00:35:17;;;;;;;7.07;4.07;;;;;;;0.91;100.00;100581.17;1786445;80;21132;-77
2021/04/25 00:37:45;;;;;;;5.83;3.90;;;;;;;0.86;100.00;100581.92;1786619;80;21543;-76
2021/04/25 00:40:14;;;;;;;8.60;4.70;;;;;;;0.81;100.00;100578.20;1786583;80;21148;-76
2021/04/25 00:42:42;;;;;;;8.13;4.13;;;;;;;0.78;100.00;100577.54;1786632;80;21156;-76
2021/04/25 00:45:13;;;;;;;7.23;4.70;;;;;;;0.72;100.00;100578.78;1786437;80;21279;-76
2021/04/25 00:47:42;;;;;;;6.47;3.80;;;;;;;0.68;100.00;100582.59;1786592;80;21149;-76
2021/04/25 00:50:12;;;;;;;7.70;4.20;;;;;;;0.62;100.00;100579.84;1786732;80;21274;-76
2021/04/25 00:52:45;;;;;;;9.13;4.20;;;;;;;0.55;100.00;100577.17;1786639;80;21176;-76
2021/04/25 00:55:16;;;;;;;6.30;3.65;;;;;;;0.50;100.00;100576.11;1786624;80;21275;-74
2021/04/25 00:57:44;;;;;;;7.63;3.90;;;;;;;0.46;100.00;100577.25;1786572;80;21149;-76
2021/04/25 01:00:13;;;;;;;9.70;4.10;;;;;;;0.42;100.00;100578.85;1786517;80;21555;-76
2021/04/25 01:02:41;;;;;;;7.93;3.77;;;;;;;0.40;100.00;100578.09;1786782;80;21582;-76
2021/04/25 01:05:11;;;;;;;7.07;3.87;;;;;;;0.38;100.00;100579.52;1786478;80;21093;-76
2021/04/25 01:07:39;;;;;;;6.37;3.70;;;;;;;0.35;100.00;100575.25;1786561;80;21570;-76
2021/04/25 01:10:08;;;;;;;7.60;3.97;;;;;;;0.33;100.00;100582.44;1786575;80;21247;-76
2021/04/25 01:12:37;;;;;;;5.23;3.60;;;;;;;0.31;100.00;100586.16;1786354;80;21551;-76
2021/04/25 01:15:06;;;;;;;6.47;3.60;;;;;;;0.27;100.00;100586.81;1786543;80;21125;-75
2021/04/25 01:17:35;;;;;;;7.40;4.20;;;;;;;0.25;100.00;100580.73;1786360;80;21180;-75
2021/04/25 01:20:03;;;;;;;7.37;3.87;;;;;;;0.25;100.00;100583.84;1756151;80;21125;-75
2021/04/25 01:22:31;;;;;;;7.57;3.60;;;;;;;0.24;100.00;100583.48;1786330;80;21287;-75
2021/04/25 01:24:59;;;;;;;7.37;3.90;;;;;;;0.23;100.00;100581.30;1786635;80;21519;-75
2021/04/25 01:27:26;;;;;;;11.50;5.10;;;;;;;0.21;100.00;100578.34;1786566;80;21137;-76
2021/04/25 01:29:54;;;;;;;9.40;5.53;;;;;;;0.20;100.00;100579.30;1786376;80;21587;-75
2021/04/25 01:32:22;;;;;;;10.93;5.37;;;;;;;0.18;100.00;100576.73;1776701;80;21134;-76
2021/04/25 01:34:50;;;;;;;9.47;5.10;;;;;;;0.16;100.00;100578.15;1772922;81;21646;-76
2021/04/25 01:37:17;;;;;;;9.33;4.33;;;;;;;0.14;100.00;100574.73;1772726;80;21118;-75
2021/04/25 01:39:45;;;;;;;8.10;3.77;;;;;;;0.11;100.00;100576.23;1773001;81;21156;-76
2021/04/25 01:42:13;;;;;;;9.70;5.10;;;;;;;0.09;100.00;100576.80;1772681;81;21580;-76
2021/04/25 01:44:41;;;;;;;8.73;3.90;;;;;;;0.05;100.00;100579.72;1772108;81;21138;-75
2021/04/25 01:47:08;;;;;;;9.50;4.10;;;;;;;0.03;100.00;100580.29;1772326;81;21110;-76
2021/04/25 01:49:37;;;;;;;11.60;5.00;;;;;;;0.00;100.00;100578.68;1772107;80;21086;-75
2021/04/25 01:52:05;;;;;;;13.93;5.17;;;;;;;-0.04;100.00;100575.80;1772100;80;21133;-76
2021/04/25 01:54:33;;;;;;;16.23;6.03;;;;;;;-0.06;100.00;100575.88;1772300;81;21544;-76
2021/04/25 01:57:00;;;;;;;16.50;5.53;;;;;;;-0.05;100.00;100576.77;1772006;81;21153;-75
2021/04/25 01:59:30;;;;;;;16.47;6.53;;;;;;;-0.04;100.00;100573.98;1772066;81;21141;-75
2021/04/25 02:01:58;;;;;;;17.53;6.60;;;;;;;-0.02;100.00;100581.42;1772073;81;21137;-76
2021/04/25 02:04:26;;;;;;;18.83;6.73;;;;;;;-0.01;100.00;100575.63;1772013;81;21141;-75
2021/04/25 02:06:53;;;;;;;17.13;6.67;;;;;;;0.02;100.00;100581.22;1772144;81;21169;-75
2021/04/25 02:09:21;;;;;;;20.87;7.37;;;;;;;-0.02;100.00;100577.44;1772195;80;21110;-75
2021/04/25 02:11:49;;;;;;;20.77;7.13;;;;;;;-0.03;100.00;100589.00;1772112;81;21209;-75
2021/04/25 02:14:17;;;;;;;17.43;6.10;;;;;;;-0.05;100.00;100582.08;1772061;81;21299;-75
2021/04/25 02:16:45;;;;;;;19.03;6.47;;;;;;;-0.06;100.00;100582.52;1772184;80;21133;-75
2021/04/25 02:19:12;;;;;;;20.60;6.97;;;;;;;-0.04;100.00;100585.10;1772008;81;21133;-75
2021/04/25 02:21:40;;;;;;;19.90;6.90;;;;;;;0.01;100.00;100579.53;1772107;81;21177;-76
2021/04/25 02:24:09;;;;;;;20.40;6.60;;;;;;;-0.01;100.00;100579.61;1772233;81;21517;-75
2021/04/25 02:26:37;;;;;;;13.10;5.30;;;;;;;-0.03;100.00;100583.69;1771975;80;21154;-76
2021/04/25 02:29:05;;;;;;;16.50;6.10;;;;;;;-0.06;100.00;100587.84;1772171;81;21141;-76
2021/04/25 02:31:34;;;;;;;16.07;6.20;;;;;;;-0.11;100.00;100587.73;1775567;80;21140;-77
2021/04/25 02:34:02;;;;;;;16.37;6.93;;;;;;;-0.15;100.00;100591.05;1757887;80;21145;-76
2021/04/25 02:36:30;;;;;;;15.07;5.47;;;;;;;-0.17;100.00;100594.27;1786554;80;21155;-76
2021/04/25 02:38:58;;;;;;;10.93;4.90;;;;;;;-0.16;100.00;100593.79;1786700;80;21236;-76
2021/04/25 02:41:27;;;;;;;11.00;4.53;;;;;;;-0.17;100.00;100592.94;1786555;80;21118;-76
2021/04/25 02:43:54;;;;;;;11.33;4.37;;;;;;;-0.16;100.00;100596.00;1786577;80;21117;-77
2021/04/25 02:46:22;;;;;;;8.70;3.97;;;;;;;-0.15;100.00;100592.38;1786613;80;21129;-76
2021/04/25 02:48:50;;;;;;;7.23;3.60;;;;;;;-0.15;100.00;100589.72;1786554;80;21157;-76
2021/04/25 02:51:18;;;;;;;8.30;3.70;;;;;;;-0.12;100.00;100598.00;1786502;80;21148;-76
2021/04/25 02:53:46;;;;;;;5.93;3.67;;;;;;;-0.10;100.00;100594.78;1786689;80;21109;-76
2021/04/25 02:56:14;;;;;;;7.43;4.07;;;;;;;-0.09;100.00;100593.36;1786634;80;21144;-76
2021/04/25 02:58:42;;;;;;;5.90;3.60;;;;;;;-0.08;100.00;100592.40;1786817;80;21551;-76
2021/04/25 03:01:10;;;;;;;6.23;3.70;;;;;;;-0.08;100.00;100592.88;1786808;80;21113;-76
2021/04/25 03:03:37;;;;;;;6.27;3.33;;;;;;;-0.08;100.00;100592.40;1786600;80;21153;-76
2021/04/25 03:06:05;;;;;;;7.33;3.50;;;;;;;-0.07;100.00;100599.89;1786693;80;21129;-76
2021/04/25 03:08:33;;;;;;;5.60;3.23;;;;;;;-0.05;100.00;100612.66;1786696;80;21085;-76
2021/04/25 03:11:02;;;;;;;4.97;3.33;;;;;;;-0.03;100.00;100613.41;1786508;80;21129;-77
2021/04/25 03:13:30;;;;;;;8.77;3.20;;;;;;;-0.01;100.00;100607.53;1786708;80;21176;-75
2021/04/25 03:15:59;;;;;;;6.73;3.50;;;;;;;0.02;100.00;100608.69;1786729;80;21157;-76
2021/04/25 03:18:26;;;;;;;4.73;2.93;;;;;;;0.06;100.00;100608.03;1786558;80;21184;-75
2021/04/25 03:20:54;;;;;;;7.30;3.50;;;;;;;0.08;100.00;100614.96;1786681;80;21563;-75
2021/04/25 03:23:22;;;;;;;7.80;4.00;;;;;;;0.10;100.00;100613.55;1786672;80;21255;-75
2021/04/25 03:25:50;;;;;;;6.73;3.70;;;;;;;0.12;100.00;100612.50;1786621;80;21135;-75
2021/04/25 03:28:19;;;;;;;6.53;3.50;;;;;;;0.16;100.00;100606.52;1786557;80;21129;-75
2021/04/25 03:30:47;;;;;;;7.17;4.27;;;;;;;0.21;100.00;100611.09;1786442;80;21145;-76
2021/04/25 03:33:16;;;;;;;8.83;4.20;;;;;;;0.24;100.00;100610.92;1786446;80;21274;-75
2021/04/25 03:35:43;;;;;;;8.17;3.73;;;;;;;0.31;100.00;100618.08;1786573;80;21128;-75
2021/04/25 03:38:11;;;;;;;9.70;4.20;;;;;;;0.36;100.00;100622.17;1786614;80;21177;-75
2021/04/25 03:40:39;;;;;;;10.63;4.27;;;;;;;0.44;100.00;100623.03;1786600;80;21141;-75
2021/04/25 03:43:07;;;;;;;12.10;4.67;;;;;;;0.49;100.00;100620.95;1786681;80;21512;-75
2021/04/25 03:45:35;;;;;;;13.87;5.23;;;;;;;0.58;100.00;100626.69;1786563;80;21144;-76
2021/04/25 03:48:03;;;;;;;22.40;8.87;;;;;;;0.67;100.00;100636.28;1786599;80;21128;-76
2021/04/25 03:50:31;;;;;;;21.37;8.23;;;;;;;0.78;100.00;100640.09;1786631;80;21729;-76
2021/04/25 03:52:59;;;;;;;20.13;6.70;;;;;;;0.87;100.00;100635.09;1786522;80;21113;-77
2021/04/25 03:55:27;;;;;;;16.40;5.30;;;;;;;0.93;100.00;100637.36;1786598;80;21520;-77
2021/04/25 03:57:56;;;;;;;14.10;5.03;;;;;;;1.01;100.00;100640.02;1786534;80;21152;-77
2021/04/25 04:00:24;;;;;;;12.37;5.20;;;;;;;1.05;100.00;100653.55;1786722;80;21607;-77
2021/04/25 04:02:52;;;;;;;15.23;5.10;;;;;;;1.09;100.00;100655.06;1786712;80;21149;-77
2021/04/25 04:05:20;;;;;;;17.20;5.40;;;;;;;1.12;100.00;100659.72;1786537;80;21164;-77
2021/04/25 04:07:48;;;;;;;10.47;4.60;;;;;;;1.18;100.00;100656.30;1786688;80;21559;-76
2021/04/25 04:10:16;;;;;;;13.23;4.73;;;;;;;1.23;100.00;100655.53;1786464;80;21121;-77
2021/04/25 04:12:44;;;;;;;13.67;5.07;;;;;;;1.26;100.00;100657.53;1786616;80;21169;-77
2021/04/25 04:15:13;;;;;;;13.70;4.50;;;;;;;1.31;100.00;100654.11;1786622;80;21141;-77
2021/04/25 04:17:42;;;;;;;12.23;5.00;;;;;;;1.39;100.00;100657.61;1786532;80;21089;-77
2021/04/25 04:20:12;;;;;;;15.80;5.30;;;;;;;1.45;100.00;100653.23;1786389;80;21153;-77
2021/04/25 04:22:40;;;;;;;11.37;4.60;;;;;;;1.55;100.00;100657.48;1786714;80;21585;-76
2021/04/25 04:25:10;;;;;;;15.07;4.73;;;;;;;1.65;100.00;100655.11;1786863;80;21953;-77
2021/04/25 04:27:38;;;;;;;13.20;5.00;;;;;;;1.74;100.00;100655.84;1786676;80;21539;-78
2021/04/25 04:30:07;;;;;;;15.97;6.07;;;;;;;1.84;100.00;100653.41;1786834;80;21113;-76
2021/04/25 04:32:35;;;;;;;18.67;5.80;;;;;;;1.93;100.00;100648.84;1780809;80;21093;-76
2021/04/25 04:35:04;;;;;;;22.73;6.43;;;;;;;2.04;100.00;100658.31;1772265;81;21149;-76
2021/04/25 04:37:31;;;;;;;17.17;6.10;;;;;;;2.14;100.00;100661.20;1771914;81;21642;-77
2021/04/25 04:39:59;;;;;;;16.53;5.70;;;;;;;2.24;100.00;100662.80;1772119;81;21330;-76
2021/04/25 04:42:27;;;;;;;10.97;5.17;;;;;;;2.28;100.00;100657.17;1771938;81;21165;-77
2021/04/25 04:44:55;;;;;;;12.03;5.13;;;;;;;2.37;100.00;100658.82;1772012;81;21567;-77
2021/04/25 04:47:22;;;;;;;10.33;4.87;;;;;;;2.44;100.00;100659.66;1772096;81;21125;-76
2021/04/25 04:49:50;;;;;;;7.23;4.30;;;;;;;2.55;100.00;100656.27;1772128;81;21865;-76
2021/04/25 04:52:18;;;;;;;8.13;4.30;;;;;;;2.68;100.00;100655.42;1771813;81;21588;-77
2021/04/25 04:54:46;;;;;;;10.43;4.80;;;;;;;2.82;100.00;100653.98;1771924;80;21226;-77
2021/04/25 04:57:15;;;;;;;13.23;4.87;;;;;;;2.98;100.00;100647.09;1771915;81;21141;-77
2021/04/25 04:59:43;;;;;;;8.13;4.30;;;;;;;3.16;100.00;100656.48;1771949;81;21118;-76
2021/04/25 05:02:11;;;;;;;7.87;4.30;;;;;;;3.31;100.00;100645.20;1772019;81;21157;-76
2021/04/25 05:04:39;;;;;;;9.03;4.80;;;;;;;3.47;100.00;100646.75;1771961;80;21142;-77
2021/04/25 05:07:07;;;;;;;11.90;4.67;;;;;;;3.61;100.00;100636.78;1772190;81;21122;-77
2021/04/25 05:09:35;;;;;;;10.33;4.90;;;;;;;3.77;100.00;100645.00;1771901;81;21126;-77
2021/04/25 05:12:05;;;;;;;11.90;4.83;;;;;;;3.90;100.00;100636.45;1772041;80;21595;-76
2021/04/25 05:14:33;;;;;;;8.57;4.20;;;;;;;4.09;100.00;100637.75;1772046;81;21267;-76
2021/04/25 05:17:01;;;;;;;11.37;4.27;;;;;;;4.26;100.00;100638.69;1771973;81;21555;-77
2021/04/25 05:19:31;;;;;;;9.83;4.60;;;;;;;4.48;100.00;100629.89;1772157;81;21149;-78
2021/04/25 05:21:59;;;;;;;8.10;4.23;;;;;;;4.71;100.00;100630.80;1772223;80;21106;-77
2021/04/25 05:24:27;;;;;;;10.83;4.63;;;;;;;4.87;100.00;100625.56;1772148;81;21114;-78
2021/04/25 05:26:55;;;;;;;10.70;4.80;;;;;;;5.02;100.00;100624.37;1772276;81;21134;-76
2021/04/25 05:29:24;;;;;;;10.27;4.67;;;;;;;5.23;100.00;100620.47;1772248;80;21149;-77
2021/04/25 05:31:52;;;;;;;11.80;4.90;;;;;;;5.46;100.00;100620.47;1772172;81;21615;-77
2021/04/25 05:34:20;;;;;;;9.97;4.70;;;;;;;5.74;100.00;100622.22;1772329;81;21276;-76
2021/04/25 05:36:48;;;;;;;13.97;5.00;;;;;;;5.99;100.00;100610.37;1771985;81;21184;-77
2021/04/25 05:39:16;;;;;;;12.23;4.67;;;;;;;6.20;100.00;100609.08;1772145;81;21130;-78
2021/04/25 05:41:43;;;;;;;9.23;4.30;;;;;;;6.32;100.00;100612.07;1772413;81;21268;-77
2021/04/25 05:44:11;;;;;;;8.33;4.20;;;;;;;6.40;100.00;100609.57;1771974;80;21319;-77
2021/04/25 05:46:39;;;;;;;8.70;4.60;;;;;;;6.45;100.00;100610.53;1772342;81;21141;-76
2021/04/25 05:49:07;;;;;;;9.63;4.37;;;;;;;6.55;100.00;100605.21;1772164;81;21256;-76
2021/04/25 05:51:36;;;;;;;7.37;4.00;;;;;;;6.71;100.00;100599.37;1772013;81;21138;-78
2021/04/25 05:54:04;;;;;;;9.50;4.50;;;;;;;6.95;100.00;100603.13;1772186;81;21283;-76
2021/04/25 05:56:32;;;;;;;9.20;4.27;;;;;;;7.14;100.00;100597.83;1772026;81;21173;-77
2021/04/25 05:58:59;;;;;;;6.40;3.90;;;;;;;7.36;100.00;100601.30;1772151;81;22310;-77
2021/04/25 06:01:27;;;;;;;7.80;3.77;;;;;;;7.48;100.00;100598.02;1772220;80;21267;-77
2021/04/25 06:03:56;;;;;;;10.87;4.53;;;;;;;7.58;100.00;100596.22;1772099;81;21106;-77
2021/04/25 06:06:24;;;;;;;7.30;3.87;;;;;;;7.78;100.00;100591.70;1772103;81;21094;-77
2021/04/25 06:08:53;;;;;;;7.20;3.60;;;;;;;8.02;100.00;100589.10;1772298;81;21295;-77
2021/04/25 06:11:21;;;;;;;5.30;2.90;;;;;;;8.27;100.00;100584.98;1771993;81;21204;-76
2021/04/25 06:13:50;;;;;;;4.73;2.90;;;;;;;8.40;100.00;100583.36;1772052;81;21098;-76
2021/04/25 06:16:18;;;;;;;5.07;2.80;;;;;;;8.50;100.00;100590.98;1772232;81;21133;-77
2021/04/25 06:18:46;;;;;;;4.20;2.83;;;;;;;8.73;100.00;100589.64;1772158;80;21122;-77
2021/04/25 06:21:14;;;;;;;6.50;3.17;;;;;;;9.00;100.00;100591.20;1772220;81;21153;-77
2021/04/25 06:23:42;;;;;;;4.53;2.80;;;;;;;9.13;100.00;100588.50;1772053;81;21126;-76
2021/04/25 06:26:10;;;;;;;8.30;3.27;;;;;;;9.25;100.00;100595.91;1772189;81;21129;-76
2021/04/25 06:28:37;;;;;;;7.40;3.00;;;;;;;9.31;100.00;100598.03;1772274;81;21524;-76
2021/04/25 06:31:05;;;;;;;5.77;3.10;;;;;;;9.30;100.00;100593.63;1772077;81;21322;-76
2021/04/25 06:33:33;;;;;;;7.03;3.27;;;;;;;9.38;96.49;100596.91;1780128;80;21667;-76
2021/04/25 06:36:01;;;;;;;6.50;3.70;;;;;;;9.53;99.59;100592.39;1786637;80;21148;-75
2021/04/25 06:38:29;;;;;;;6.47;3.50;;;;;;;9.75;97.00;100589.23;1786603;80;21306;-77
2021/04/25 06:40:57;;;;;;;6.37;3.43;;;;;;;9.87;92.05;100590.72;1787061;80;21132;-76
2021/04/25 06:43:25;;;;;;;6.80;3.60;;;;;;;9.93;91.80;100597.36;1786835;80;21504;-76
2021/04/25 06:45:53;;;;;;;9.30;3.33;;;;;;;10.00;90.09;100593.03;1787030;80;21157;-78
2021/04/25 06:48:21;;;;;;;8.00;3.17;;;;;;;10.14;91.78;100596.22;1786599;80;21145;-77
2021/04/25 06:50:49;;;;;;;8.53;3.40;;;;;;;10.16;88.91;100600.45;1786672;80;21179;-78
2021/04/25 06:53:17;;;;;;;7.10;3.30;;;;;;;10.18;86.23;100597.59;1786671;79;21105;-77
2021/04/25 06:55:45;;;;;;;10.50;3.50;;;;;;;10.26;87.02;100585.52;1786665;80;21279;-77
2021/04/25 06:58:12;;;;;;;5.72;2.72;;;;;;;10.37;87.93;100594.76;1786624;80;21248;-77
2021/04/25 07:00:40;;;;;;;6.65;3.05;;;;;;;10.42;78.95;100596.48;1786821;80;21125;-77
2021/04/25 07:03:09;;;;;;;7.05;3.15;;;;;;;10.36;77.96;100590.38;1787540;80;21105;-77
2021/04/25 07:05:38;;;;;;;6.00;2.85;;;;;;;10.38;80.47;100591.06;1786573;80;21152;-77
2021/04/25 07:08:07;;;;;;;7.22;2.80;;;;;;;10.48;80.58;100588.77;1786943;80;21141;-77
2021/04/25 07:10:35;;;;;;;3.62;2.42;;;;;;;10.68;75.83;100592.11;1786652;80;21133;-77
2021/04/25 07:13:04;;;;;;;4.28;2.60;;;;;;;10.73;73.00;100583.89;1786571;80;21140;-77
2021/04/25 07:15:31;;;;;;;3.95;2.67;;;;;;;10.81;71.59;100592.05;1786772;80;21152;-78
2021/04/25 07:17:59;;;;;;;3.72;2.52;;;;;;;10.94;71.76;100585.36;1786463;80;21551;-77
2021/04/25 07:20:27;;;;;;;6.40;2.83;;;;;;;11.14;68.16;100588.70;1786832;80;21536;-78
2021/04/25 07:22:55;;;;;;;3.47;2.42;;;;;;;11.17;69.94;100586.52;1786746;80;21125;-78
2021/04/25 07:25:23;;;;;;;2.92;2.17;;;;;;;11.16;63.20;100579.39;1786637;80;21591;-77
2021/04/25 07:27:51;;;;;;;2.40;2.20;;;;;;;11.22;66.97;100580.60;1786623;80;21117;-79
2021/04/25 07:30:22;;;;;;;4.53;2.58;;;;;;;11.19;64.42;100585.84;1786664;80;21149;-79
2021/04/25 07:32:50;;;;;;;3.75;2.80;;;;;;;11.00;67.07;100584.22;1784978;80;21113;-78
2021/04/25 07:35:18;;;;;;;5.80;2.58;;;;;;;10.97;67.29;100579.12;1772210;81;21125;-76
2021/04/25 07:37:48;;;;;;;3.90;2.75;;;;;;;11.16;71.62;100579.91;1771897;81;21134;-74
2021/04/25 07:40:17;;;;;;;4.50;2.72;;;;;;;11.30;64.77;100582.00;1771994;81;21167;-73
2021/04/25 07:42:45;;;;;;;5.42;2.72;;;;;;;11.21;68.10;100582.47;1770878;81;21170;-75
2021/04/25 07:45:14;;;;;;;2.90;2.60;;;;;;;11.35;67.20;100581.02;1771819;81;21201;-75
2021/04/25 07:47:42;;;;;;;4.47;2.83;;;;;;;11.49;66.90;100577.32;1772200;81;21125;-74
2021/04/25 07:50:11;;;;;;;5.17;2.72;;;;;;;11.53;57.48;100577.36;1771387;81;21142;-72
2021/04/25 07:52:39;;;;;;;4.20;3.12;;;;;;;11.62;57.50;100570.95;1772322;81;21118;-73
2021/04/25 07:55:08;;;;;;;3.42;2.75;;;;;;;11.66;57.02;100566.05;1771981;81;21130;-74
2021/04/25 07:57:37;;;;;;;4.10;2.80;;;;;;;11.61;57.63;100570.59;1772057;79;21137;-72
2021/04/25 08:00:08;;;;;;;4.08;2.60;;;;;;;11.64;59.42;100569.43;1771264;80;21137;-72
2021/04/25 08:02:37;;;;;;;5.37;2.90;;;;;;;11.80;60.29;100566.75;1771377;80;21155;-73
2021/04/25 08:05:07;;;;;;;4.15;2.80;;;;;;;11.98;55.64;100565.80;1771926;81;21279;-73
2021/04/25 08:07:36;;;;;;;4.70;2.87;;;;;;;12.14;58.57;100566.65;1771885;81;21255;-74
2021/04/25 08:10:07;;;;;;;3.65;2.67;;;;;;;12.16;52.52;100561.06;1771844;81;21252;-73
2021/04/25 08:12:35;;;;;;;4.78;2.65;;;;;;;12.30;55.85;100554.96;1771957;81;21101;-73
2021/04/25 08:15:05;;;;;;;3.42;2.90;;;;;;;12.65;49.39;100553.42;1771975;81;21125;-72
2021/04/25 08:17:33;;;;;;;7.15;2.75;;;;;;;12.80;48.94;100549.48;1772053;81;21114;-73
2021/04/25 08:20:04;;;;;;;4.42;2.75;;;;;;;12.85;50.51;100546.58;1771931;81;21571;-74
2021/04/25 08:22:33;;;;;;;4.80;2.85;;;;;;;12.82;50.01;100551.51;1771832;81;21129;-73
2021/04/25 08:25:01;;;;;;;6.37;2.80;;;;;;;12.99;47.64;100541.47;1772141;81;21150;-72
2021/04/25 08:27:28;;;;;;;3.22;2.52;;;;;;;13.06;47.07;100532.95;1772188;81;21134;-72
2021/04/25 08:29:56;;;;;;;3.08;2.30;;;;;;;13.08;45.40;100537.20;1772043;81;21161;-73
2021/04/25 08:32:24;;;;;;;4.10;2.50;;;;;;;13.03;44.56;100528.73;1771920;81;21110;-75
2021/04/25 08:34:52;;;;;;;4.55;2.90;;;;;;;12.95;41.56;100540.97;1779022;80;21145;-76
2021/04/25 08:37:20;;;;;;;2.98;2.60;;;;;;;12.98;43.71;100534.33;1780479;80;21685;-76
2021/04/25 08:39:47;;;;;;;4.35;3.10;;;;;;;13.11;44.59;100530.56;1780697;80;21125;-78
2021/04/25 08:42:17;;;;;;;4.45;2.83;;;;;;;13.11;43.64;100523.25;1780594;80;21160;-82
2021/04/25 08:44:45;;;;;;;5.70;2.77;;;;;;;13.25;42.23;100527.10;1780552;80;21261;-82
2021/04/25 08:47:13;;;;;;;3.75;2.50;;;;;;;13.37;41.61;100522.17;1780618;80;21133;-82
2021/04/25 08:49:42;;;;;;;3.35;2.87;;;;;;;13.48;42.77;100520.92;1780543;80;21122;-83
2021/04/25 08:52:10;;;;;;;4.33;2.65;;;;;;;13.70;38.32;100511.09;1781833;80;21277;-83
2021/04/25 08:54:38;;;;;;;4.20;2.50;;;;;;;13.49;40.87;100518.52;1781850;80;21587;-82
2021/04/25 08:57:07;;;;;;;3.75;2.50;;;;;;;13.30;42.52;100524.70;1781082;80;21105;-82
2021/04/25 08:59:35;;;;;;;2.83;2.47;;;;;;;13.23;43.92;100522.37;1780838;80;21275;-84
2021/04/25 09:02:04;;;;;;;3.05;2.75;;;;;;;13.05;42.88;100517.67;1780583;80;21638;-83
2021/04/25 09:04:32;;;;;;;4.83;2.52;;;;;;;12.78;42.29;100518.44;1780832;80;21299;-82
2021/04/25 09:07:06;;;;;;;3.05;2.60;;;;;;;12.79;46.49;100516.59;1780894;80;21536;-81
2021/04/25 09:09:51;;;;;;;3.20;2.70;;;;;;;13.13;42.27;100500.00;1781141;80;21548;-83
2021/04/25 09:15:19;;;;;;;4.87;2.92;;;;;;;13.76;38.82;100478.30;1814819;77;22971;-81
2021/04/25 09:17:53;;;;;;;4.72;3.20;;;;;;;13.79;38.97;100476.06;1786495;80;21274;-82
2021/04/25 09:20:45;;;;;;;3.55;2.55;;;;;;;13.85;39.98;100495.70;1786818;80;21538;-81
2021/04/25 09:23:21;;;;;;;2.92;2.30;;;;;;;13.82;39.17;100488.43;1786815;80;21140;-81
2021/04/25 09:25:56;;;;;;;6.62;3.02;;;;;;;13.94;40.83;100492.94;1740041;82;21158;-83
2021/04/25 09:28:24;;;;;;;3.50;2.70;;;;;;;13.97;39.92;100487.11;1740232;82;21369;-85
2021/04/25 09:30:57;;;;;;;4.90;2.80;;;;;;;13.77;38.97;100471.30;1740488;82;21163;-83
2021/04/25 09:33:27;;;;;;;3.77;2.80;;;;;;;13.54;38.77;100473.17;1740203;82;21213;-82
2021/04/25 09:35:57;;;;;;;3.98;2.62;;;;;;;13.40;40.41;100471.57;1740912;82;21174;-83
2021/04/25 09:38:27;;;;;;;3.85;2.80;;;;;;;13.56;40.05;100476.02;1718100;82;21210;-81
2021/04/25 09:40:55;;;;;;;3.55;2.70;;;;;;;13.62;38.35;100469.88;1713668;82;21150;-82
2021/04/25 09:43:23;;;;;;;5.50;2.60;;;;;;;13.45;37.43;100468.30;1740557;82;21252;-81
2021/04/25 09:45:57;;;;;;;5.08;2.95;;;;;;;13.15;39.08;100461.82;1740226;82;21157;-81
2021/04/25 09:48:30;;;;;;;4.20;3.00;;;;;;;13.07;39.76;100458.64;1740506;81;21130;-82
2021/04/25 09:51:26;;;;;;;4.17;2.70;;;;;;;13.30;40.92;100456.81;1842342;77;22914;-82
2021/04/25 09:54:00;;;;;;;4.05;2.60;;;;;;;13.33;36.33;100447.48;1755986;81;21278;-85
2021/04/25 09:56:39;;;;;;;3.75;2.60;;;;;;;13.14;39.31;100448.77;1707235;82;21258;-80
2021/04/25 09:59:08;;;;;;;4.58;3.17;;;;;;;13.15;37.37;100448.25;1708820;84;21171;-83
2021/04/25 10:01:39;;;;;;;5.92;2.83;;;;;;;13.07;36.88;100450.50;1753485;82;21165;-83
2021/04/25 10:04:29;;;;;;;3.85;2.80;;;;;;;12.88;39.29;100454.48;1709004;84;21175;-83
2021/04/25 10:06:58;;;;;;;4.10;2.50;;;;;;;12.73;40.45;100456.58;1753745;82;21168;-85
2021/04/25 10:09:28;;;;;;;3.22;2.50;;;;;;;12.58;42.35;100453.41;1708655;84;21198;-84
2021/04/25 10:11:59;;;;;;;3.25;2.40;;;;;;;12.54;42.14;100443.41;1753632;82;21562;-82
2021/04/25 10:14:28;;;;;;;2.90;2.60;;;;;;;12.45;39.11;100445.30;1708644;84;21179;-83
2021/04/25 10:16:56;;;;;;;2.92;2.40;;;;;;;12.47;40.76;100433.77;1753241;82;21183;-80
2021/04/25 10:19:24;;;;;;;4.15;2.50;;;;;;;12.67;38.64;100441.50;1709441;84;21183;-77
2021/04/25 10:21:52;;;;;;;3.37;2.42;;;;;;;13.10;40.24;100433.83;1753668;82;21157;-81
2021/04/25 10:24:21;;;;;;;5.85;2.80;;;;;;;13.68;35.04;100429.75;1708743;84;21626;-81
2021/04/25 10:27:09;;;;;;;3.50;2.47;;;;;;;14.17;34.15;100428.48;1753720;82;21160;-84
2021/04/25 10:29:57;;;;;;;3.37;2.67;;;;;;;14.26;34.00;100434.69;1814626;77;23069;-84
2021/04/25 10:32:25;;;;;;;4.15;2.58;;;;;;;14.27;34.41;100432.30;1778727;80;21294;-81
2021/04/25 10:35:22;;;;;;;5.20;2.52;;;;;;;14.34;32.45;100425.58;1780257;80;21566;-80
2021/04/25 10:37:50;;;;;;;3.30;2.40;;;;;;;14.10;32.21;100428.89;1779899;80;21367;-80
2021/04/25 10:40:36;;;;;;;6.12;3.02;;;;;;;13.95;31.30;100418.00;1780277;80;21700;-79
2021/04/25 10:43:11;;;;;;;4.30;2.92;;;;;;;14.13;31.63;100417.66;1780421;80;21132;-80
2021/04/25 10:46:01;;;;;;;5.10;2.60;;;;;;;14.49;31.58;100407.92;1780210;80;21481;-83
2021/04/25 10:48:34;;;;;;;2.67;2.45;;;;;;;14.72;33.03;100418.21;1780212;80;21183;-83
2021/04/25 10:51:12;;;;;;;3.30;2.27;;;;;;;14.90;32.46;100419.70;1814829;77;22595;-84
2021/04/25 10:53:47;;;;;;;6.15;2.45;;;;;;;14.68;28.81;100425.57;1786786;80;21133;-85
2021/04/25 10:56:21;;;;;;;4.37;2.62;;;;;;;14.33;31.69;100419.31;1740395;82;21222;-84
2021/04/25 10:58:53;;;;;;;4.60;2.42;;;;;;;14.28;35.42;100423.63;1740531;82;21182;-84
2021/04/25 11:01:45;;;;;;;7.22;2.75;;;;;;;14.40;32.76;100418.05;1856133;77;22934;-83
2021/04/25 11:04:12;;;;;;;4.53;2.30;;;;;;;14.09;33.92;100414.95;1829171;78;21116;-82
2021/04/25 11:06:41;;;;;;;2.95;2.50;;;;;;;13.90;33.89;100416.83;1796464;78;21274;-81
2021/04/25 11:09:21;;;;;;;4.97;2.70;;;;;;;13.90;33.98;100410.91;1827698;78;21140;-84
2021/04/25 11:11:48;;;;;;;3.35;2.65;;;;;;;13.89;33.09;100414.64;1819978;78;21124;-85
2021/04/25 11:14:19;;;;;;;4.40;2.98;;;;;;;13.67;33.90;100431.31;1827674;78;21128;-82
2021/04/25 11:16:49;;;;;;;4.12;3.00;;;;;;;13.46;34.45;100415.67;1819743;78;21117;-81
2021/04/25 11:19:17;;;;;;;4.20;2.83;;;;;;;13.60;35.34;100421.67;1827414;78;21179;-81
2021/04/25 11:21:49;;;;;;;5.58;2.98;;;;;;;13.93;33.76;100405.08;1819284;78;21281;-84
2021/04/25 11:24:26;;;;;;;6.30;3.30;;;;;;;14.41;37.23;100400.19;1827782;78;21613;-84
2021/04/25 11:26:56;;;;;;;3.80;2.90;;;;;;;15.10;34.61;100394.06;1827545;78;21270;-81
2021/04/25 11:29:42;;;;;;;6.60;2.95;;;;;;;15.26;30.41;100392.45;1827760;78;21137;-80
2021/04/25 11:32:26;;;;;;;4.47;2.70;;;;;;;15.28;30.18;100380.00;1827435;78;21180;-80
2021/04/25 11:35:00;;;;;;;4.37;2.85;;;;;;;15.31;28.15;100381.82;1827174;78;21125;-81